Terminal Aerodrome Forecast
Issued by NWS

Home | Current Version | Previous Version | Text Only | Print | Product List | Glossary On
Versions: 1 2 3 4 5 6 7 8 9 10 11 12 13 14 15 16 17 18 19 20 21 22
000
FTUS43 KEAX 292300
TAFSTJ
TAF
KSTJ 292321Z 3000/3024 19006KT P6SM VCTS FEW045CB
      TEMPO 3000/3002 2SM TSRA BKN050CB
     FM300300 VRB05KT P6SM SCT060
     FM300900 VRB02KT 1SM BR BKN008
     FM301300 29006KT P6SM SCT200=

USA.gov is the U.S. government's official web portal to all federal, state and local government web resources and services.